sensor_id;sensor_type;location;lat;lon;timestamp;pressure;altitude;pressure_sealevel;temperature;humidity
59650;BME280;46162;57.568;25.814;2023-02-24T00:00:27;99767.16;;;-4.85;100.00
59650;BME280;46162;57.568;25.814;2023-02-24T00:03:01;99760.59;;;-4.76;100.00
59650;BME280;46162;57.568;25.814;2023-02-24T00:05:36;99752.31;;;-4.86;100.00
59650;BME280;46162;57.568;25.814;2023-02-24T00:08:09;99745.19;;;-4.84;100.00
59650;BME280;46162;57.568;25.814;2023-02-24T00:10:37;99748.03;;;-4.88;100.00
59650;BME280;46162;57.568;25.814;2023-02-24T00:13:08;99747.59;;;-4.79;100.00
59650;BME280;46162;57.568;25.814;2023-02-24T00:15:38;99727.38;;;-4.79;100.00
59650;BME280;46162;57.568;25.814;2023-02-24T00:18:07;99724.50;;;-4.74;100.00
59650;BME280;46162;57.568;25.814;2023-02-24T00:20:36;99720.31;;;-4.78;100.00
59650;BME280;46162;57.568;25.814;2023-02-24T00:23:05;99714.81;;;-4.73;100.00
59650;BME280;46162;57.568;25.814;2023-02-24T00:25:35;99711.81;;;-4.83;100.00
59650;BME280;46162;57.568;25.814;2023-02-24T00:28:04;99709.50;;;-4.89;100.00
59650;BME280;46162;57.568;25.814;2023-02-24T00:30:36;99698.56;;;-4.82;100.00
59650;BME280;46162;57.568;25.814;2023-02-24T00:33:05;99691.69;;;-4.84;100.00
59650;BME280;46162;57.568;25.814;2023-02-24T00:35:34;99696.31;;;-4.72;100.00
59650;BME280;46162;57.568;25.814;2023-02-24T00:38:02;99693.81;;;-4.75;100.00
59650;BME280;46162;57.568;25.814;2023-02-24T00:40:31;99679.75;;;-4.74;100.00
59650;BME280;46162;57.568;25.814;2023-02-24T00:43:03;99679.13;;;-4.79;100.00
59650;BME280;46162;57.568;25.814;2023-02-24T00:45:35;99676.41;;;-4.78;100.00
59650;BME280;46162;57.568;25.814;2023-02-24T00:48:05;99676.00;;;-4.70;100.00
59650;BME280;46162;57.568;25.814;2023-02-24T00:50:36;99670.66;;;-4.68;100.00
59650;BME280;46162;57.568;25.814;2023-02-24T00:53:08;99661.97;;;-4.70;100.00
59650;BME280;46162;57.568;25.814;2023-02-24T00:55:36;99653.00;;;-4.66;100.00
59650;BME280;46162;57.568;25.814;2023-02-24T00:58:05;99648.56;;;-4.66;100.00
59650;BME280;46162;57.568;25.814;2023-02-24T01:00:33;99637.50;;;-4.72;100.00
59650;BME280;46162;57.568;25.814;2023-02-24T01:03:05;99636.19;;;-4.64;100.00
59650;BME280;46162;57.568;25.814;2023-02-24T01:05:35;99630.22;;;-4.67;100.00
59650;BME280;46162;57.568;25.814;2023-02-24T01:08:04;99609.66;;;-4.61;100.00
59650;BME280;46162;57.568;25.814;2023-02-24T01:10:34;99616.81;;;-4.63;100.00
59650;BME280;46162;57.568;25.814;2023-02-24T01:13:02;99606.38;;;-4.64;100.00
59650;BME280;46162;57.568;25.814;2023-02-24T01:15:30;99606.25;;;-4.63;100.00
59650;BME280;46162;57.568;25.814;2023-02-24T01:17:59;99588.19;;;-4.69;100.00
59650;BME280;46162;57.568;25.814;2023-02-24T01:20:31;99582.00;;;-4.52;100.00
59650;BME280;46162;57.568;25.814;2023-02-24T01:22:59;99584.88;;;-4.57;100.00
59650;BME280;46162;57.568;25.814;2023-02-24T01:25:29;99568.22;;;-4.41;100.00
59650;BME280;46162;57.568;25.814;2023-02-24T01:27:58;99571.72;;;-4.57;100.00
59650;BME280;46162;57.568;25.814;2023-02-24T01:30:27;99566.19;;;-4.52;100.00
59650;BME280;46162;57.568;25.814;2023-02-24T01:32:57;99557.59;;;-4.56;100.00
59650;BME280;46162;57.568;25.814;2023-02-24T01:35:27;99559.81;;;-4.64;100.00
59650;BME280;46162;57.568;25.814;2023-02-24T01:37:59;99557.00;;;-4.61;100.00
59650;BME280;46162;57.568;25.814;2023-02-24T01:40:27;99553.78;;;-4.50;100.00
59650;BME280;46162;57.568;25.814;2023-02-24T01:42:56;99542.38;;;-4.50;100.00
59650;BME280;46162;57.568;25.814;2023-02-24T01:45:26;99543.31;;;-4.51;100.00
59650;BME280;46162;57.568;25.814;2023-02-24T01:47:59;99538.28;;;-4.40;100.00
59650;BME280;46162;57.568;25.814;2023-02-24T01:50:33;99532.94;;;-4.39;100.00
59650;BME280;46162;57.568;25.814;2023-02-24T01:53:06;99527.44;;;-4.34;100.00
59650;BME280;46162;57.568;25.814;2023-02-24T01:55:39;99519.13;;;-4.42;100.00
59650;BME280;46162;57.568;25.814;2023-02-24T01:58:19;99514.16;;;-4.48;100.00
59650;BME280;46162;57.568;25.814;2023-02-24T02:00:49;99511.72;;;-4.51;100.00
59650;BME280;46162;57.568;25.814;2023-02-24T02:03:24;99504.31;;;-4.29;100.00
59650;BME280;46162;57.568;25.814;2023-02-24T02:05:59;99510.78;;;-4.50;100.00
59650;BME280;46162;57.568;25.814;2023-02-24T02:08:29;99514.31;;;-4.36;100.00
59650;BME280;46162;57.568;25.814;2023-02-24T02:11:02;99499.13;;;-4.46;100.00
59650;BME280;46162;57.568;25.814;2023-02-24T02:13:37;99499.72;;;-4.41;100.00
59650;BME280;46162;57.568;25.814;2023-02-24T02:16:26;99495.13;;;-4.38;100.00
59650;BME280;46162;57.568;25.814;2023-02-24T02:19:10;99492.75;;;-4.58;100.00
59650;BME280;46162;57.568;25.814;2023-02-24T02:22:17;99491.41;;;-4.65;100.00
59650;BME280;46162;57.568;25.814;2023-02-24T02:24:56;99477.31;;;-4.64;100.00
59650;BME280;46162;57.568;25.814;2023-02-24T02:27:43;99476.44;;;-4.49;100.00
59650;BME280;46162;57.568;25.814;2023-02-24T02:30:46;99471.03;;;-4.62;100.00
59650;BME280;46162;57.568;25.814;2023-02-24T02:36:18;99447.91;;;-4.57;100.00
59650;BME280;46162;57.568;25.814;2023-02-24T02:38:54;99450.13;;;-4.65;100.00
59650;BME280;46162;57.568;25.814;2023-02-24T02:41:33;99429.31;;;-4.85;100.00
59650;BME280;46162;57.568;25.814;2023-02-24T02:44:13;99437.38;;;-4.57;100.00
59650;BME280;46162;57.568;25.814;2023-02-24T02:46:48;99431.25;;;-4.73;100.00
59650;BME280;46162;57.568;25.814;2023-02-24T02:49:20;99427.09;;;-4.61;100.00
59650;BME280;46162;57.568;25.814;2023-02-24T02:51:56;99423.03;;;-4.83;100.00
59650;BME280;46162;57.568;25.814;2023-02-24T02:54:30;99418.69;;;-4.68;100.00
59650;BME280;46162;57.568;25.814;2023-02-24T02:57:07;99410.25;;;-4.59;100.00
59650;BME280;46162;57.568;25.814;2023-02-24T02:59:39;99405.44;;;-4.66;100.00
59650;BME280;46162;57.568;25.814;2023-02-24T03:02:10;99398.56;;;-4.69;100.00
59650;BME280;46162;57.568;25.814;2023-02-24T03:04:45;99394.16;;;-4.38;100.00
59650;BME280;46162;57.568;25.814;2023-02-24T03:07:22;99390.94;;;-4.43;100.00
59650;BME280;46162;57.568;25.814;2023-02-24T03:09:59;99385.53;;;-4.26;100.00
59650;BME280;46162;57.568;25.814;2023-02-24T03:12:30;99381.16;;;-4.41;100.00
59650;BME280;46162;57.568;25.814;2023-02-24T03:15:02;99382.38;;;-4.17;100.00
59650;BME280;46162;57.568;25.814;2023-02-24T03:17:37;99377.59;;;-4.40;100.00
59650;BME280;46162;57.568;25.814;2023-02-24T03:20:12;99363.88;;;-4.31;100.00
59650;BME280;46162;57.568;25.814;2023-02-24T03:22:47;99359.50;;;-4.46;100.00
59650;BME280;46162;57.568;25.814;2023-02-24T03:25:21;99364.06;;;-4.34;100.00
59650;BME280;46162;57.568;25.814;2023-02-24T03:27:59;99362.00;;;-4.29;100.00
59650;BME280;46162;57.568;25.814;2023-02-24T03:30:38;99357.38;;;-4.25;100.00
59650;BME280;46162;57.568;25.814;2023-02-24T03:33:14;99344.47;;;-4.44;100.00
59650;BME280;46162;57.568;25.814;2023-02-24T03:35:44;99334.25;;;-4.65;100.00
59650;BME280;46162;57.568;25.814;2023-02-24T03:38:14;99327.66;;;-4.58;100.00
59650;BME280;46162;57.568;25.814;2023-02-24T03:40:43;99326.22;;;-4.47;100.00
59650;BME280;46162;57.568;25.814;2023-02-24T03:43:23;99318.59;;;-4.38;100.00
59650;BME280;46162;57.568;25.814;2023-02-24T03:45:55;99308.81;;;-4.36;100.00
59650;BME280;46162;57.568;25.814;2023-02-24T03:48:26;99316.72;;;-4.50;100.00
59650;BME280;46162;57.568;25.814;2023-02-24T03:50:57;99304.88;;;-4.28;100.00
59650;BME280;46162;57.568;25.814;2023-02-24T03:53:48;99307.03;;;-4.21;100.00
59650;BME280;46162;57.568;25.814;2023-02-24T03:56:27;99290.38;;;-4.21;100.00
59650;BME280;46162;57.568;25.814;2023-02-24T03:59:09;99294.44;;;-4.16;100.00
59650;BME280;46162;57.568;25.814;2023-02-24T04:01:47;99292.38;;;-4.11;100.00
59650;BME280;46162;57.568;25.814;2023-02-24T04:04:36;99290.59;;;-4.10;100.00
59650;BME280;46162;57.568;25.814;2023-02-24T04:07:23;99287.56;;;-4.04;100.00
59650;BME280;46162;57.568;25.814;2023-02-24T04:10:03;99284.84;;;-4.02;100.00
59650;BME280;46162;57.568;25.814;2023-02-24T04:12:42;99279.03;;;-3.93;100.00
59650;BME280;46162;57.568;25.814;2023-02-24T04:15:18;99285.13;;;-4.07;100.00
59650;BME280;46162;57.568;25.814;2023-02-24T04:17:52;99265.16;;;-4.11;100.00
59650;BME280;46162;57.568;25.814;2023-02-24T04:20:29;99266.66;;;-4.36;100.00
59650;BME280;46162;57.568;25.814;2023-02-24T04:23:04;99263.56;;;-4.14;100.00
59650;BME280;46162;57.568;25.814;2023-02-24T04:25:38;99263.66;;;-4.29;100.00
59650;BME280;46162;57.568;25.814;2023-02-24T04:28:11;99258.66;;;-4.48;100.00
59650;BME280;46162;57.568;25.814;2023-02-24T04:30:46;99259.56;;;-4.64;100.00
59650;BME280;46162;57.568;25.814;2023-02-24T04:33:18;99260.28;;;-4.76;100.00
59650;BME280;46162;57.568;25.814;2023-02-24T04:35:49;99260.75;;;-4.84;100.00
59650;BME280;46162;57.568;25.814;2023-02-24T04:38:20;99250.97;;;-4.82;100.00
59650;BME280;46162;57.568;25.814;2023-02-24T04:40:51;99255.59;;;-4.71;100.00
59650;BME280;46162;57.568;25.814;2023-02-24T04:43:21;99250.56;;;-4.60;100.00
59650;BME280;46162;57.568;25.814;2023-02-24T04:45:49;99240.00;;;-4.45;100.00
59650;BME280;46162;57.568;25.814;2023-02-24T04:48:19;99249.38;;;-4.40;100.00
59650;BME280;46162;57.568;25.814;2023-02-24T04:50:48;99247.84;;;-4.44;100.00
59650;BME280;46162;57.568;25.814;2023-02-24T04:53:21;99248.41;;;-4.39;100.00
59650;BME280;46162;57.568;25.814;2023-02-24T04:55:55;99253.22;;;-4.31;100.00
59650;BME280;46162;57.568;25.814;2023-02-24T04:58:25;99246.16;;;-4.30;100.00
59650;BME280;46162;57.568;25.814;2023-02-24T05:00:54;99243.91;;;-4.37;100.00
59650;BME280;46162;57.568;25.814;2023-02-24T05:03:24;99238.25;;;-4.16;100.00
59650;BME280;46162;57.568;25.814;2023-02-24T05:06:00;99240.50;;;-4.24;100.00
59650;BME280;46162;57.568;25.814;2023-02-24T05:08:35;99231.19;;;-4.16;100.00
59650;BME280;46162;57.568;25.814;2023-02-24T05:11:06;99228.38;;;-4.13;100.00
59650;BME280;46162;57.568;25.814;2023-02-24T05:13:35;99233.09;;;-4.18;100.00
59650;BME280;46162;57.568;25.814;2023-02-24T05:16:06;99222.34;;;-4.15;100.00
59650;BME280;46162;57.568;25.814;2023-02-24T05:18:35;99230.53;;;-3.91;100.00
59650;BME280;46162;57.568;25.814;2023-02-24T05:21:06;99220.84;;;-4.19;100.00
59650;BME280;46162;57.568;25.814;2023-02-24T05:23:53;99218.13;;;-4.17;100.00
59650;BME280;46162;57.568;25.814;2023-02-24T05:26:26;99226.31;;;-4.22;100.00
59650;BME280;46162;57.568;25.814;2023-02-24T05:28:58;99223.09;;;-4.27;100.00
59650;BME280;46162;57.568;25.814;2023-02-24T05:31:29;99215.75;;;-4.36;100.00
59650;BME280;46162;57.568;25.814;2023-02-24T05:34:00;99209.72;;;-4.38;100.00
59650;BME280;46162;57.568;25.814;2023-02-24T05:36:35;99212.38;;;-4.09;100.00
59650;BME280;46162;57.568;25.814;2023-02-24T05:39:06;99203.16;;;-4.17;100.00
59650;BME280;46162;57.568;25.814;2023-02-24T05:41:41;99199.75;;;-4.19;100.00
59650;BME280;46162;57.568;25.814;2023-02-24T05:44:12;99201.81;;;-4.09;100.00
59650;BME280;46162;57.568;25.814;2023-02-24T05:46:44;99202.28;;;-4.03;100.00
59650;BME280;46162;57.568;25.814;2023-02-24T05:49:18;99201.25;;;-4.00;100.00
59650;BME280;46162;57.568;25.814;2023-02-24T05:51:50;99193.34;;;-4.00;100.00
59650;BME280;46162;57.568;25.814;2023-02-24T05:54:23;99195.88;;;-3.99;100.00
59650;BME280;46162;57.568;25.814;2023-02-24T05:56:57;99194.06;;;-3.98;100.00
59650;BME280;46162;57.568;25.814;2023-02-24T05:59:28;99191.63;;;-4.01;100.00
59650;BME280;46162;57.568;25.814;2023-02-24T06:02:02;99197.47;;;-3.96;100.00
59650;BME280;46162;57.568;25.814;2023-02-24T06:04:38;99193.00;;;-3.81;100.00
59650;BME280;46162;57.568;25.814;2023-02-24T06:07:13;99189.72;;;-3.85;100.00
59650;BME280;46162;57.568;25.814;2023-02-24T06:09:45;99192.56;;;-3.88;100.00
59650;BME280;46162;57.568;25.814;2023-02-24T06:12:21;99184.06;;;-3.79;100.00
59650;BME280;46162;57.568;25.814;2023-02-24T06:14:50;99183.69;;;-3.73;100.00
59650;BME280;46162;57.568;25.814;2023-02-24T06:17:21;99183.38;;;-3.68;100.00
59650;BME280;46162;57.568;25.814;2023-02-24T06:19:53;99182.06;;;-3.61;100.00
59650;BME280;46162;57.568;25.814;2023-02-24T06:22:26;99176.59;;;-3.45;100.00
59650;BME280;46162;57.568;25.814;2023-02-24T06:24:55;99176.00;;;-3.36;100.00
59650;BME280;46162;57.568;25.814;2023-02-24T06:27:25;99178.03;;;-3.27;100.00
59650;BME280;46162;57.568;25.814;2023-02-24T06:29:54;99170.38;;;-3.44;100.00
59650;BME280;46162;57.568;25.814;2023-02-24T06:32:25;99170.00;;;-3.38;100.00
59650;BME280;46162;57.568;25.814;2023-02-24T06:34:54;99172.13;;;-3.30;100.00
59650;BME280;46162;57.568;25.814;2023-02-24T06:37:25;99163.97;;;-3.40;100.00
59650;BME280;46162;57.568;25.814;2023-02-24T06:39:54;99160.97;;;-3.21;100.00
59650;BME280;46162;57.568;25.814;2023-02-24T06:42:28;99155.78;;;-3.22;100.00
59650;BME280;46162;57.568;25.814;2023-02-24T06:44:57;99156.75;;;-3.11;100.00
59650;BME280;46162;57.568;25.814;2023-02-24T06:47:26;99150.41;;;-3.08;100.00
59650;BME280;46162;57.568;25.814;2023-02-24T06:49:59;99153.91;;;-2.95;100.00
59650;BME280;46162;57.568;25.814;2023-02-24T06:52:28;99147.78;;;-2.95;100.00
59650;BME280;46162;57.568;25.814;2023-02-24T06:54:58;99142.59;;;-2.97;100.00
59650;BME280;46162;57.568;25.814;2023-02-24T06:57:28;99140.19;;;-2.87;100.00
59650;BME280;46162;57.568;25.814;2023-02-24T07:00:00;99132.38;;;-2.76;100.00
59650;BME280;46162;57.568;25.814;2023-02-24T07:02:43;99130.16;;;-2.69;100.00
59650;BME280;46162;57.568;25.814;2023-02-24T07:05:11;99130.69;;;-2.64;100.00
59650;BME280;46162;57.568;25.814;2023-02-24T07:07:43;99133.75;;;-2.45;100.00
59650;BME280;46162;57.568;25.814;2023-02-24T07:10:13;99137.09;;;-2.43;100.00
59650;BME280;46162;57.568;25.814;2023-02-24T07:12:44;99128.47;;;-2.45;100.00
59650;BME280;46162;57.568;25.814;2023-02-24T07:15:12;99123.69;;;-2.40;100.00
59650;BME280;46162;57.568;25.814;2023-02-24T07:17:43;99114.38;;;-2.32;100.00
59650;BME280;46162;57.568;25.814;2023-02-24T07:20:16;99114.16;;;-2.29;100.00
59650;BME280;46162;57.568;25.814;2023-02-24T07:22:51;99111.19;;;-2.25;100.00
59650;BME280;46162;57.568;25.814;2023-02-24T07:25:21;99110.63;;;-2.17;100.00
59650;BME280;46162;57.568;25.814;2023-02-24T07:28:01;99112.16;;;-2.02;100.00
59650;BME280;46162;57.568;25.814;2023-02-24T07:30:31;99114.91;;;-2.03;100.00
59650;BME280;46162;57.568;25.814;2023-02-24T07:33:00;99112.81;;;-2.11;100.00
59650;BME280;46162;57.568;25.814;2023-02-24T07:35:30;99118.25;;;-1.88;100.00
59650;BME280;46162;57.568;25.814;2023-02-24T07:37:59;99109.03;;;-1.83;100.00
59650;BME280;46162;57.568;25.814;2023-02-24T07:40:31;99115.28;;;-1.84;100.00
59650;BME280;46162;57.568;25.814;2023-02-24T07:43:02;99108.53;;;-1.88;100.00
59650;BME280;46162;57.568;25.814;2023-02-24T07:45:32;99106.78;;;-2.00;100.00
59650;BME280;46162;57.568;25.814;2023-02-24T07:48:01;99110.50;;;-1.79;100.00
59650;BME280;46162;57.568;25.814;2023-02-24T07:50:30;99107.97;;;-1.80;100.00
59650;BME280;46162;57.568;25.814;2023-02-24T07:53:02;99098.56;;;-1.60;100.00
59650;BME280;46162;57.568;25.814;2023-02-24T07:55:33;99108.81;;;-1.56;100.00
59650;BME280;46162;57.568;25.814;2023-02-24T07:58:03;99107.91;;;-1.43;100.00
59650;BME280;46162;57.568;25.814;2023-02-24T08:00:32;99107.38;;;-1.48;100.00
59650;BME280;46162;57.568;25.814;2023-02-24T08:03:20;99108.69;;;-1.54;100.00
59650;BME280;46162;57.568;25.814;2023-02-24T08:05:49;99109.03;;;-1.59;100.00
59650;BME280;46162;57.568;25.814;2023-02-24T08:08:19;99103.53;;;-1.44;100.00
59650;BME280;46162;57.568;25.814;2023-02-24T08:10:51;99105.63;;;-1.37;100.00
59650;BME280;46162;57.568;25.814;2023-02-24T08:13:31;99095.88;;;-1.36;100.00
59650;BME280;46162;57.568;25.814;2023-02-24T08:16:04;99094.88;;;-1.46;100.00
59650;BME280;46162;57.568;25.814;2023-02-24T08:18:33;99097.84;;;-1.27;100.00
59650;BME280;46162;57.568;25.814;2023-02-24T08:21:03;99094.00;;;-1.23;100.00
59650;BME280;46162;57.568;25.814;2023-02-24T08:23:32;99094.94;;;-1.24;100.00
59650;BME280;46162;57.568;25.814;2023-02-24T08:26:10;99096.31;;;-1.18;100.00
59650;BME280;46162;57.568;25.814;2023-02-24T08:28:43;99086.34;;;-1.39;100.00
59650;BME280;46162;57.568;25.814;2023-02-24T08:31:12;99080.75;;;-1.23;100.00
59650;BME280;46162;57.568;25.814;2023-02-24T08:33:40;99082.81;;;-1.15;100.00
59650;BME280;46162;57.568;25.814;2023-02-24T08:36:09;99082.09;;;-1.17;100.00
59650;BME280;46162;57.568;25.814;2023-02-24T08:38:39;99083.69;;;-1.03;100.00
59650;BME280;46162;57.568;25.814;2023-02-24T08:41:14;99076.72;;;-0.93;100.00
59650;BME280;46162;57.568;25.814;2023-02-24T08:43:48;99077.22;;;-0.88;100.00
59650;BME280;46162;57.568;25.814;2023-02-24T08:46:20;99071.44;;;-0.71;100.00
59650;BME280;46162;57.568;25.814;2023-02-24T08:48:54;99067.34;;;-0.63;100.00
59650;BME280;46162;57.568;25.814;2023-02-24T08:51:25;99072.41;;;-0.60;100.00
59650;BME280;46162;57.568;25.814;2023-02-24T08:53:57;99064.22;;;-0.46;100.00
59650;BME280;46162;57.568;25.814;2023-02-24T08:56:29;99062.03;;;-0.41;100.00
59650;BME280;46162;57.568;25.814;2023-02-24T08:59:04;99073.59;;;-0.31;100.00
59650;BME280;46162;57.568;25.814;2023-02-24T09:01:36;99053.56;;;-0.35;100.00
59650;BME280;46162;57.568;25.814;2023-02-24T09:04:08;99063.47;;;-0.26;100.00
59650;BME280;46162;57.568;25.814;2023-02-24T09:06:42;99058.38;;;-0.17;100.00
59650;BME280;46162;57.568;25.814;2023-02-24T09:09:12;99059.09;;;-0.04;100.00
59650;BME280;46162;57.568;25.814;2023-02-24T09:11:53;99053.63;;;0.09;100.00
59650;BME280;46162;57.568;25.814;2023-02-24T09:14:26;99040.13;;;0.01;100.00
59650;BME280;46162;57.568;25.814;2023-02-24T09:16:57;99045.53;;;0.10;100.00
59650;BME280;46162;57.568;25.814;2023-02-24T09:19:40;99042.81;;;0.21;100.00
59650;BME280;46162;57.568;25.814;2023-02-24T09:22:24;99041.81;;;0.34;100.00
59650;BME280;46162;57.568;25.814;2023-02-24T09:25:09;99042.81;;;0.21;100.00
59650;BME280;46162;57.568;25.814;2023-02-24T09:27:54;99045.34;;;-0.09;100.00
59650;BME280;46162;57.568;25.814;2023-02-24T09:30:26;99044.75;;;-0.13;100.00
59650;BME280;46162;57.568;25.814;2023-02-24T09:33:19;99042.69;;;-0.09;100.00
59650;BME280;46162;57.568;25.814;2023-02-24T09:35:53;99041.72;;;-0.08;100.00
59650;BME280;46162;57.568;25.814;2023-02-24T09:38:29;99044.16;;;-0.28;100.00
59650;BME280;46162;57.568;25.814;2023-02-24T09:41:25;99033.63;;;-0.73;100.00
59650;BME280;46162;57.568;25.814;2023-02-24T09:44:15;99039.63;;;-0.93;100.00
59650;BME280;46162;57.568;25.814;2023-02-24T09:46:50;99035.75;;;-1.12;100.00
59650;BME280;46162;57.568;25.814;2023-02-24T09:49:25;99038.63;;;-1.15;100.00
59650;BME280;46162;57.568;25.814;2023-02-24T09:52:11;99036.25;;;-1.18;100.00
59650;BME280;46162;57.568;25.814;2023-02-24T09:54:45;99035.50;;;-1.31;100.00
59650;BME280;46162;57.568;25.814;2023-02-24T09:57:48;99031.63;;;-1.38;100.00
59650;BME280;46162;57.568;25.814;2023-02-24T10:00:33;99024.38;;;-1.36;100.00
59650;BME280;46162;57.568;25.814;2023-02-24T10:03:18;99022.13;;;-1.30;100.00
59650;BME280;46162;57.568;25.814;2023-02-24T10:06:15;99022.75;;;-1.26;100.00
59650;BME280;46162;57.568;25.814;2023-02-24T10:08:54;99016.38;;;-1.23;100.00
59650;BME280;46162;57.568;25.814;2023-02-24T10:11:25;99017.22;;;-1.23;100.00
59650;BME280;46162;57.568;25.814;2023-02-24T10:14:08;99024.19;;;-1.22;100.00
59650;BME280;46162;57.568;25.814;2023-02-24T10:16:48;99019.72;;;-1.21;100.00
59650;BME280;46162;57.568;25.814;2023-02-24T10:19:50;99011.44;;;-1.17;100.00
59650;BME280;46162;57.568;25.814;2023-02-24T10:22:39;99009.03;;;-1.20;100.00
59650;BME280;46162;57.568;25.814;2023-02-24T10:25:25;99010.34;;;-1.14;100.00
59650;BME280;46162;57.568;25.814;2023-02-24T10:28:11;99006.03;;;-1.15;100.00
59650;BME280;46162;57.568;25.814;2023-02-24T10:30:48;99003.75;;;-1.09;100.00
59650;BME280;46162;57.568;25.814;2023-02-24T10:33:32;99005.53;;;-1.09;100.00
59650;BME280;46162;57.568;25.814;2023-02-24T10:36:09;99003.63;;;-1.07;100.00
59650;BME280;46162;57.568;25.814;2023-02-24T10:38:40;99004.00;;;-1.00;100.00
59650;BME280;46162;57.568;25.814;2023-02-24T10:41:13;98999.16;;;-1.06;100.00
59650;BME280;46162;57.568;25.814;2023-02-24T10:43:53;99005.44;;;-1.08;100.00
59650;BME280;46162;57.568;25.814;2023-02-24T10:46:27;98998.06;;;-1.15;100.00
59650;BME280;46162;57.568;25.814;2023-02-24T10:49:13;98998.56;;;-1.10;100.00
59650;BME280;46162;57.568;25.814;2023-02-24T10:51:51;98990.03;;;-1.14;100.00
59650;BME280;46162;57.568;25.814;2023-02-24T10:54:24;98995.19;;;-1.12;100.00
59650;BME280;46162;57.568;25.814;2023-02-24T10:57:15;98990.97;;;-1.15;100.00
59650;BME280;46162;57.568;25.814;2023-02-24T10:59:55;98996.28;;;-1.15;100.00
59650;BME280;46162;57.568;25.814;2023-02-24T11:02:47;98984.47;;;-1.11;100.00
59650;BME280;46162;57.568;25.814;2023-02-24T11:05:39;98977.97;;;-1.06;100.00
59650;BME280;46162;57.568;25.814;2023-02-24T11:08:36;98983.16;;;-1.05;100.00
59650;BME280;46162;57.568;25.814;2023-02-24T11:11:32;98990.50;;;-1.09;100.00
59650;BME280;46162;57.568;25.814;2023-02-24T11:14:25;98983.88;;;-1.14;100.00
59650;BME280;46162;57.568;25.814;2023-02-24T11:17:19;98973.41;;;-1.04;100.00
59650;BME280;46162;57.568;25.814;2023-02-24T11:19:58;98979.91;;;-0.97;100.00
59650;BME280;46162;57.568;25.814;2023-02-24T11:22:30;98970.50;;;-0.90;100.00
59650;BME280;46162;57.568;25.814;2023-02-24T11:25:06;98971.22;;;-0.88;100.00
59650;BME280;46162;57.568;25.814;2023-02-24T11:27:39;98967.97;;;-0.92;100.00
59650;BME280;46162;57.568;25.814;2023-02-24T11:30:14;98959.91;;;-0.90;100.00
59650;BME280;46162;57.568;25.814;2023-02-24T11:33:08;98953.41;;;-0.97;100.00
59650;BME280;46162;57.568;25.814;2023-02-24T11:35:46;98950.28;;;-1.02;100.00
59650;BME280;46162;57.568;25.814;2023-02-24T11:38:25;98959.22;;;-1.03;100.00
59650;BME280;46162;57.568;25.814;2023-02-24T11:41:04;98950.91;;;-0.99;100.00
59650;BME280;46162;57.568;25.814;2023-02-24T11:43:37;98950.97;;;-0.89;100.00
59650;BME280;46162;57.568;25.814;2023-02-24T11:46:12;98949.19;;;-0.77;100.00
59650;BME280;46162;57.568;25.814;2023-02-24T11:48:45;98943.72;;;-0.65;100.00
59650;BME280;46162;57.568;25.814;2023-02-24T11:51:19;98945.63;;;-0.44;100.00
59650;BME280;46162;57.568;25.814;2023-02-24T11:53:52;98938.41;;;-0.42;100.00
59650;BME280;46162;57.568;25.814;2023-02-24T11:56:26;98944.19;;;-0.59;100.00
59650;BME280;46162;57.568;25.814;2023-02-24T11:59:06;98948.81;;;-0.61;100.00
59650;BME280;46162;57.568;25.814;2023-02-24T12:01:42;98945.06;;;-0.70;100.00
59650;BME280;46162;57.568;25.814;2023-02-24T12:04:19;98948.09;;;-0.75;100.00
59650;BME280;46162;57.568;25.814;2023-02-24T12:06:55;98937.63;;;-0.76;100.00
59650;BME280;46162;57.568;25.814;2023-02-24T12:09:29;98942.56;;;-0.83;100.00
59650;BME280;46162;57.568;25.814;2023-02-24T12:12:03;98942.56;;;-0.83;100.00
59650;BME280;46162;57.568;25.814;2023-02-24T12:14:36;98933.63;;;-0.82;100.00
59650;BME280;46162;57.568;25.814;2023-02-24T12:17:15;98932.66;;;-0.70;100.00
59650;BME280;46162;57.568;25.814;2023-02-24T12:19:53;98924.69;;;-0.58;100.00
59650;BME280;46162;57.568;25.814;2023-02-24T12:22:29;98919.59;;;-0.50;100.00
59650;BME280;46162;57.568;25.814;2023-02-24T12:25:00;98918.97;;;-0.43;100.00
59650;BME280;46162;57.568;25.814;2023-02-24T12:27:44;98913.56;;;-0.41;100.00
59650;BME280;46162;57.568;25.814;2023-02-24T12:30:26;98909.16;;;-0.19;100.00
59650;BME280;46162;57.568;25.814;2023-02-24T12:33:17;98911.44;;;-0.26;100.00
59650;BME280;46162;57.568;25.814;2023-02-24T12:35:57;98906.16;;;-0.26;100.00
59650;BME280;46162;57.568;25.814;2023-02-24T12:38:40;98917.34;;;-0.23;100.00
59650;BME280;46162;57.568;25.814;2023-02-24T12:41:22;98899.19;;;-0.06;100.00
59650;BME280;46162;57.568;25.814;2023-02-24T12:44:12;98893.09;;;0.24;100.00
59650;BME280;46162;57.568;25.814;2023-02-24T12:46:45;98890.66;;;0.11;100.00
59650;BME280;46162;57.568;25.814;2023-02-24T12:49:31;98904.75;;;-0.09;100.00
59650;BME280;46162;57.568;25.814;2023-02-24T12:52:11;98904.25;;;-0.35;100.00
59650;BME280;46162;57.568;25.814;2023-02-24T12:54:51;98908.50;;;-0.44;100.00
59650;BME280;46162;57.568;25.814;2023-02-24T12:57:26;98894.28;;;-0.43;100.00
59650;BME280;46162;57.568;25.814;2023-02-24T13:00:05;98892.09;;;-0.38;100.00
59650;BME280;46162;57.568;25.814;2023-02-24T13:02:45;98887.53;;;-0.47;100.00
59650;BME280;46162;57.568;25.814;2023-02-24T13:05:20;98886.38;;;-0.54;100.00
59650;BME280;46162;57.568;25.814;2023-02-24T13:08:04;98892.91;;;-0.70;100.00
59650;BME280;46162;57.568;25.814;2023-02-24T13:10:41;98894.97;;;-0.84;100.00
59650;BME280;46162;57.568;25.814;2023-02-24T13:13:19;98892.22;;;-0.83;100.00
59650;BME280;46162;57.568;25.814;2023-02-24T13:15:54;98890.66;;;-0.85;100.00
59650;BME280;46162;57.568;25.814;2023-02-24T13:18:25;98886.00;;;-0.93;100.00
59650;BME280;46162;57.568;25.814;2023-02-24T13:21:04;98894.50;;;-0.90;100.00
59650;BME280;46162;57.568;25.814;2023-02-24T13:23:34;98891.75;;;-0.88;100.00